Time;durP1;ratioP1;P1;durP2;ratioP2;P2;SDS_P1;SDS_P2;PMS_P1;PMS_P2;Temp;Humidity;BMP_temperature;BMP_pressure;BME280_temperature;BME280_humidity;BME280_pressure;Samples;Min_cycle;Max_cycle;Signal;HPM_P1;HPM_P2
2023/07/27 00:00:29;;;;;;;0.50;0.50;;;;;;;13.00;74.85;96783.25;29394;274;64013;-67
2023/07/27 00:01:01;;;;;;;0.50;0.50;;;;;;;12.99;74.74;96787.06;29394;204;64009;-55
2023/07/27 00:01:32;;;;;;;0.50;0.50;;;;;;;12.98;74.95;96785.47;29394;271;64014;-71
2023/07/27 00:02:04;;;;;;;0.60;0.60;;;;;;;13.01;74.81;96784.84;29395;255;63005;-66
2023/07/27 00:02:38;;;;;;;0.47;0.47;;;;;;;12.99;74.86;96783.56;29395;214;63009;-67
2023/07/27 00:03:09;;;;;;;0.50;0.50;;;;;;;12.98;74.70;96781.94;29395;196;63005;-56
2023/07/27 00:03:41;;;;;;;0.50;0.50;;;;;;;13.00;75.06;96783.25;29395;199;63009;-68
2023/07/27 00:04:12;;;;;;;0.50;0.50;;;;;;;13.01;74.88;96784.03;29395;260;63009;-70
2023/07/27 00:04:44;;;;;;;0.50;0.50;;;;;;;12.96;74.98;96774.06;29395;221;63009;-67
2023/07/27 00:05:15;;;;;;;0.40;0.40;;;;;;;12.92;75.28;96775.00;29395;229;63004;-55
2023/07/27 00:05:47;;;;;;;0.50;0.50;;;;;;;12.89;75.49;96781.06;29395;240;63009;-55
2023/07/27 00:06:18;;;;;;;0.50;0.50;;;;;;;12.87;75.32;96786.03;29395;234;63004;-67
2023/07/27 00:06:50;;;;;;;0.40;0.40;;;;;;;12.85;75.52;96778.16;29394;213;64013;-54
2023/07/27 00:07:21;;;;;;;0.50;0.50;;;;;;;12.85;75.54;96780.88;29395;223;63004;-66
2023/07/27 00:07:52;;;;;;;0.50;0.50;;;;;;;12.87;75.59;96783.31;29395;263;63008;-55
2023/07/27 00:08:23;;;;;;;0.40;0.40;;;;;;;12.87;75.24;96788.75;29395;221;63005;-68
2023/07/27 00:08:56;;;;;;;0.60;0.60;;;;;;;12.87;75.67;96786.03;29395;265;63009;-68
2023/07/27 00:09:28;;;;;;;0.45;0.45;;;;;;;12.86;75.40;96779.78;29395;222;63005;-66
2023/07/27 00:09:59;;;;;;;0.45;0.45;;;;;;;12.85;75.70;96780.06;29395;235;63009;-66
2023/07/27 00:10:30;;;;;;;0.50;0.50;;;;;;;12.87;75.51;96783.31;29395;232;63005;-55
2023/07/27 00:11:02;;;;;;;0.45;0.45;;;;;;;12.83;75.65;96782.31;29395;244;63009;-67
2023/07/27 00:11:33;;;;;;;0.50;0.50;;;;;;;12.82;75.85;96786.94;29395;235;63005;-61
2023/07/27 00:12:08;;;;;;;0.50;0.50;;;;;;;12.82;75.60;96781.50;29394;278;64013;-67
2023/07/27 00:12:39;;;;;;;0.50;0.50;;;;;;;12.84;75.85;96790.16;29395;300;63004;-55
2023/07/27 00:13:10;;;;;;;0.50;0.50;;;;;;;12.86;75.93;96789.84;29395;207;63009;-55
2023/07/27 00:13:41;;;;;;;0.50;0.50;;;;;;;12.87;75.62;96783.31;29395;207;63000;-55
2023/07/27 00:14:12;;;;;;;0.50;0.50;;;;;;;12.87;75.78;96780.56;29395;223;63015;-55
2023/07/27 00:14:44;;;;;;;0.47;0.47;;;;;;;12.87;75.66;96783.31;29395;251;63004;-55
2023/07/27 00:15:15;;;;;;;0.50;0.50;;;;;;;12.82;75.85;96776.06;29395;208;63020;-55
2023/07/27 00:15:46;;;;;;;0.45;0.45;;;;;;;12.81;75.68;96782.66;29395;220;63009;-55
2023/07/27 00:16:17;;;;;;;0.50;0.50;;;;;;;12.82;76.05;96784.22;29394;202;64014;-56
2023/07/27 00:16:49;;;;;;;0.50;0.50;;;;;;;12.84;75.71;96778.47;29394;252;64009;-55
2023/07/27 00:17:23;;;;;;;0.50;0.50;;;;;;;12.85;75.80;96780.06;29395;259;63016;-56
2023/07/27 00:17:55;;;;;;;0.50;0.50;;;;;;;12.83;75.46;96777.66;29395;216;63005;-55
2023/07/27 00:18:29;;;;;;;0.50;0.50;;;;;;;12.85;75.30;96778.16;29394;197;64013;-65
2023/07/27 00:19:00;;;;;;;0.50;0.50;;;;;;;12.84;75.39;96778.47;29394;198;64009;-66
2023/07/27 00:19:32;;;;;;;0.50;0.50;;;;;;;12.81;75.72;96777.19;29395;203;63009;-56
2023/07/27 00:20:04;;;;;;;0.50;0.50;;;;;;;12.81;75.98;96773.66;29395;203;63004;-55
2023/07/27 00:20:37;;;;;;;0.50;0.50;;;;;;;12.81;75.58;96779.13;29395;239;63009;-64
2023/07/27 00:21:08;;;;;;;0.50;0.50;;;;;;;12.79;75.79;96775.91;29395;228;63004;-55
2023/07/27 00:21:39;;;;;;;0.50;0.50;;;;;;;12.80;75.75;96777.50;29395;256;63008;-55
2023/07/27 00:22:11;;;;;;;0.40;0.40;;;;;;;12.81;75.59;96779.13;29395;216;63004;-54
2023/07/27 00:22:44;;;;;;;0.50;0.50;;;;;;;12.81;75.53;96768.22;29394;227;64013;-55
2023/07/27 00:23:15;;;;;;;0.50;0.50;;;;;;;12.81;75.85;96776.41;29395;237;63011;-55
2023/07/27 00:23:47;;;;;;;0.50;0.50;;;;;;;12.81;75.91;96768.22;29395;226;63009;-55
2023/07/27 00:24:18;;;;;;;0.50;0.50;;;;;;;12.83;75.63;96776.84;29394;244;64009;-55
2023/07/27 00:24:49;;;;;;;0.50;0.50;;;;;;;12.83;75.81;96772.22;29395;202;63009;-55
2023/07/27 00:25:24;;;;;;;0.50;0.50;;;;;;;12.85;75.37;96763.75;29395;199;63005;-56
2023/07/27 00:25:56;;;;;;;0.60;0.60;;;;;;;12.83;75.30;96771.41;29394;227;64013;-54
2023/07/27 00:26:28;;;;;;;0.50;0.50;;;;;;;12.82;75.67;96767.13;29395;223;63005;-56
2023/07/27 00:26:59;;;;;;;0.50;0.50;;;;;;;12.82;75.66;96769.84;29395;213;63009;-56
2023/07/27 00:27:31;;;;;;;0.43;0.43;;;;;;;12.81;75.90;96769.03;29395;203;63004;-55
2023/07/27 00:28:03;;;;;;;0.50;0.50;;;;;;;12.81;75.97;96766.31;29395;249;63009;-61
2023/07/27 00:28:35;;;;;;;0.43;0.43;;;;;;;12.79;75.72;96756.84;29395;218;63004;-55
2023/07/27 00:29:06;;;;;;;0.50;0.50;;;;;;;12.81;75.76;96763.59;29395;212;63008;-67
2023/07/27 00:29:38;;;;;;;0.50;0.50;;;;;;;12.81;75.70;96768.22;29394;209;64008;-55
2023/07/27 00:30:12;;;;;;;0.45;0.45;;;;;;;12.79;75.97;96759.56;29395;359;63009;-56
2023/07/27 00:30:52;;;;;;;0.50;0.50;;;;;;;12.81;75.83;96757.34;29395;257;63005;-55
2023/07/27 00:31:23;;;;;;;0.50;0.50;;;;;;;12.81;75.80;96760.88;29377;243;125009;-55
2023/07/27 00:31:55;;;;;;;0.50;0.50;;;;;;;12.83;75.68;96755.06;29373;210;63005;-55
2023/07/27 00:32:27;;;;;;;0.43;0.43;;;;;;;12.83;75.49;96760.53;29395;203;63009;-56
2023/07/27 00:33:00;;;;;;;0.50;0.50;;;;;;;12.80;75.73;96759.25;29394;236;64009;-56
2023/07/27 00:33:33;;;;;;;0.50;0.50;;;;;;;12.77;75.97;96759.06;29395;245;63019;-56
2023/07/27 00:34:04;;;;;;;0.50;0.50;;;;;;;12.71;75.64;96753.75;29395;226;63005;-54
2023/07/27 00:34:35;;;;;;;0.57;0.57;;;;;;;12.78;75.80;96755.22;29395;254;63009;-55
2023/07/27 00:35:07;;;;;;;0.50;0.50;;;;;;;12.79;76.14;96754.91;29395;224;63004;-56
2023/07/27 00:35:38;;;;;;;0.50;0.50;;;;;;;12.76;76.12;96752.81;29395;199;63009;-55
2023/07/27 00:36:10;;;;;;;0.50;0.50;;;;;;;12.73;76.16;96756.97;29395;239;63004;-54
2023/07/27 00:36:41;;;;;;;0.50;0.50;;;;;;;12.70;76.31;96757.56;29394;225;64013;-55
2023/07/27 00:37:13;;;;;;;0.43;0.43;;;;;;;12.70;76.16;96752.13;29395;234;63016;-56
2023/07/27 00:37:44;;;;;;;0.50;0.50;;;;;;;12.71;76.27;96758.38;29395;220;63009;-61
2023/07/27 00:38:17;;;;;;;0.50;0.50;;;;;;;12.72;76.19;96755.34;29395;225;63005;-56
2023/07/27 00:38:48;;;;;;;0.50;0.50;;;;;;;12.75;76.32;96754.72;29395;213;63009;-55
2023/07/27 00:39:20;;;;;;;0.40;0.40;;;;;;;12.77;76.23;96751.69;29395;220;63018;-55
2023/07/27 00:39:54;;;;;;;0.50;0.50;;;;;;;12.80;76.32;96759.25;29395;211;63009;-63
2023/07/27 00:40:25;;;;;;;0.40;0.40;;;;;;;12.81;76.23;96751.88;29395;204;63005;-54
2023/07/27 00:40:57;;;;;;;0.50;0.50;;;;;;;12.83;75.84;96755.88;29395;232;63009;-55
2023/07/27 00:41:28;;;;;;;0.50;0.50;;;;;;;12.83;76.07;96755.06;29395;205;63005;-55
2023/07/27 00:42:00;;;;;;;0.50;0.50;;;;;;;12.84;75.80;96753.97;29394;225;64013;-55
2023/07/27 00:42:32;;;;;;;0.50;0.50;;;;;;;12.85;75.99;96752.84;29395;210;63004;-54
2023/07/27 00:43:03;;;;;;;0.40;0.40;;;;;;;12.86;75.84;96746.28;29395;209;63009;-55
2023/07/27 00:43:34;;;;;;;0.50;0.50;;;;;;;12.85;75.90;96753.66;29395;221;63004;-55
2023/07/27 00:44:06;;;;;;;0.50;0.50;;;;;;;12.83;75.80;96755.88;29395;260;63017;-55
2023/07/27 00:44:37;;;;;;;0.40;0.40;;;;;;;12.83;76.01;96750.44;29395;209;63004;-55
2023/07/27 00:45:09;;;;;;;0.50;0.50;;;;;;;12.87;75.65;96750.62;29395;266;63018;-54
2023/07/27 00:45:41;;;;;;;0.50;0.50;;;;;;;12.89;75.68;96753.84;29395;204;63005;-56
2023/07/27 00:46:12;;;;;;;0.50;0.50;;;;;;;12.90;75.79;96758.16;29395;222;63009;-55
2023/07/27 00:46:44;;;;;;;0.50;0.50;;;;;;;12.90;75.64;96755.44;29395;219;63005;-62
2023/07/27 00:47:15;;;;;;;0.60;0.60;;;;;;;12.90;75.62;96750.81;29394;227;64013;-55
2023/07/27 00:47:47;;;;;;;0.50;0.50;;;;;;;12.90;75.80;96750.81;29395;236;63017;-54
2023/07/27 00:48:19;;;;;;;0.50;0.50;;;;;;;12.87;75.79;96750.62;29395;256;63009;-66
2023/07/27 00:48:50;;;;;;;0.50;0.50;;;;;;;12.89;75.64;96754.66;29395;242;63005;-65
2023/07/27 00:49:21;;;;;;;0.43;0.43;;;;;;;12.89;75.77;96751.12;29395;231;63009;-56
2023/07/27 00:49:54;;;;;;;0.68;0.68;;;;;;;12.88;75.81;96749.50;29395;284;63004;-55
2023/07/27 00:50:25;;;;;;;0.50;0.50;;;;;;;12.86;75.92;96751.72;29395;268;63009;-55
2023/07/27 00:50:57;;;;;;;0.50;0.50;;;;;;;12.83;76.00;96744.19;29395;275;63004;-54
2023/07/27 00:51:34;;;;;;;0.50;0.50;;;;;;;12.82;75.86;96748.06;29395;210;63009;-63
2023/07/27 00:52:08;;;;;;;0.50;0.50;;;;;;;12.79;75.98;96744.03;29395;201;63004;-62
2023/07/27 00:52:40;;;;;;;0.43;0.43;;;;;;;12.79;76.10;96745.94;29394;196;64014;-54
2023/07/27 00:53:15;;;;;;;0.50;0.50;;;;;;;12.78;76.25;96747.88;29395;212;63005;-55
2023/07/27 00:53:47;;;;;;;0.43;0.43;;;;;;;12.76;76.55;96744.66;29395;266;63009;-56
2023/07/27 00:54:19;;;;;;;0.50;0.50;;;;;;;12.77;76.27;96742.72;29395;297;63005;-55
2023/07/27 00:54:54;;;;;;;0.50;0.50;;;;;;;12.74;76.48;96747.69;29395;225;63009;-56
2023/07/27 00:55:26;;;;;;;0.50;0.50;;;;;;;12.73;76.28;96746.06;29395;202;63005;-65
2023/07/27 00:55:59;;;;;;;0.40;0.40;;;;;;;12.72;76.39;96738.22;29395;238;63009;-53
2023/07/27 00:56:32;;;;;;;0.50;0.50;;;;;;;12.71;76.57;96742.03;29395;207;63005;-54
2023/07/27 00:57:04;;;;;;;0.50;0.50;;;;;;;12.71;76.51;96736.59;29395;215;63009;-56
2023/07/27 00:57:35;;;;;;;0.50;0.50;;;;;;;12.67;76.79;96741.84;29395;211;63004;-55
2023/07/27 00:58:06;;;;;;;0.50;0.50;;;;;;;12.66;76.84;96745.69;29394;254;64013;-53
2023/07/27 00:58:39;;;;;;;0.50;0.50;;;;;;;12.64;76.86;96745.19;29395;212;63004;-54
2023/07/27 00:59:11;;;;;;;0.50;0.50;;;;;;;12.64;76.69;96737.03;29395;242;63009;-54
2023/07/27 00:59:42;;;;;;;0.50;0.50;;;;;;;12.68;76.94;96738.03;29395;256;63004;-54
2023/07/27 01:00:14;;;;;;;0.40;0.40;;;;;;;12.69;76.92;96741.56;29395;197;63009;-54
2023/07/27 01:00:45;;;;;;;0.50;0.50;;;;;;;12.71;76.49;96733.88;29395;222;63005;-54
2023/07/27 01:01:17;;;;;;;0.60;0.60;;;;;;;12.70;76.51;96746.69;29395;216;63005;-54
2023/07/27 01:01:49;;;;;;;0.60;0.60;;;;;;;12.69;76.98;96736.91;29395;282;63005;-54
2023/07/27 01:02:21;;;;;;;0.50;0.50;;;;;;;12.68;76.95;96732.56;29395;241;63026;-55
2023/07/27 01:02:53;;;;;;;0.50;0.50;;;;;;;12.69;76.69;96734.19;29394;212;64009;-54
2023/07/27 01:03:27;;;;;;;0.60;0.60;;;;;;;12.70;76.56;96735.00;29395;211;63009;-54
2023/07/27 01:04:00;;;;;;;0.40;0.40;;;;;;;12.69;76.70;96736.09;29395;203;63004;-57
2023/07/27 01:04:31;;;;;;;0.50;0.50;;;;;;;12.66;76.78;96734.81;29395;300;63009;-54
2023/07/27 01:05:03;;;;;;;0.50;0.50;;;;;;;12.65;77.07;96730.47;29395;200;63011;-54
2023/07/27 01:05:35;;;;;;;0.57;0.57;;;;;;;12.63;76.94;96731.91;29395;205;63009;-65
2023/07/27 01:06:07;;;;;;;0.50;0.50;;;;;;;12.64;77.09;96731.59;29395;210;63004;-57
2023/07/27 01:06:40;;;;;;;0.50;0.50;;;;;;;12.64;76.96;96734.31;29395;226;63008;-56
2023/07/27 01:07:11;;;;;;;0.40;0.40;;;;;;;12.65;77.02;96733.19;29394;224;64009;-55
2023/07/27 01:07:43;;;;;;;0.50;0.50;;;;;;;12.64;76.94;96728.06;29395;250;63009;-55
2023/07/27 01:08:14;;;;;;;0.50;0.50;;;;;;;12.62;77.23;96733.81;29395;206;63005;-55
2023/07/27 01:08:46;;;;;;;0.50;0.50;;;;;;;12.61;77.10;96736.84;29395;198;63009;-55
2023/07/27 01:09:20;;;;;;;0.43;0.43;;;;;;;12.64;76.88;96731.59;29394;267;64009;-55
2023/07/27 01:09:52;;;;;;;0.40;0.40;;;;;;;12.66;77.14;96729.34;29395;213;63009;-56
2023/07/27 01:10:34;;;;;;;0.50;0.50;;;;;;;12.66;76.89;96734.81;29395;216;63015;-55
2023/07/27 01:11:43;;;;;;;0.50;0.50;;;;;;;12.70;76.89;96733.06;29395;226;63015;-55
2023/07/27 01:12:27;;;;;;;0.45;0.45;;;;;;;12.67;76.96;96725.53;29395;238;63015;-56
2023/07/27 01:13:06;;;;;;;0.50;0.50;;;;;;;12.67;76.91;96727.44;29395;288;63009;-55
2023/07/27 01:13:43;;;;;;;0.50;0.50;;;;;;;12.64;76.96;96726.13;29395;247;63004;-56
2023/07/27 01:14:31;;;;;;;0.50;0.50;;;;;;;12.61;77.23;96720.50;29394;221;64013;-55
2023/07/27 01:15:15;;;;;;;0.50;0.50;;;;;;;12.60;77.50;96724.34;29394;305;64009;-57
2023/07/27 01:15:54;;;;;;;0.50;0.50;;;;;;;12.62;77.50;96725.66;29394;199;64014;-56
2023/07/27 01:16:44;;;;;;;0.50;0.50;;;;;;;12.65;76.98;96730.47;29394;220;64009;-55
2023/07/27 01:17:33;;;;;;;0.50;0.50;;;;;;;12.65;76.97;96722.31;29395;244;63009;-56
2023/07/27 01:18:17;;;;;;;0.50;0.50;;;;;;;12.69;77.01;96717.06;29395;219;63005;-56
2023/07/27 01:19:14;;;;;;;0.70;0.70;;;;;;;12.66;77.08;96723.91;29395;223;63009;-65
2023/07/27 01:20:47;;;;;;;0.50;0.50;;;;;;;12.60;76.98;96718.91;29394;210;64009;-56
2023/07/27 01:21:34;;;;;;;0.50;0.50;;;;;;;12.58;77.24;96716.50;29479;208;125017;-56
2023/07/27 01:22:41;;;;;;;0.50;0.50;;;;;;;12.57;77.51;96717.59;29395;203;63001;-56
2023/07/27 01:23:53;;;;;;;0.50;0.50;;;;;;;12.52;77.54;96717.72;29394;210;64014;-56
2023/07/27 01:24:56;;;;;;;0.50;0.50;;;;;;;12.54;77.89;96711.97;29395;207;63005;-64
2023/07/27 01:26:06;;;;;;;0.50;0.50;;;;;;;12.52;77.66;96716.91;29394;267;64013;-56
2023/07/27 01:27:15;;;;;;;0.50;0.50;;;;;;;12.54;77.76;96712.78;29395;218;63021;-56
2023/07/27 01:27:57;;;;;;;0.50;0.50;;;;;;;12.51;77.77;96710.66;29395;220;63004;-55
2023/07/27 01:28:54;;;;;;;0.50;0.50;;;;;;;12.51;77.76;96705.22;29395;241;63009;-55
2023/07/27 01:30:23;;;;;;;0.50;0.50;;;;;;;12.59;77.49;96707.22;29395;243;63007;-56
2023/07/27 01:31:08;;;;;;;0.50;0.50;;;;;;;12.60;77.13;96708.00;29394;261;64028;-54
2023/07/27 01:31:44;;;;;;;0.50;0.50;;;;;;;12.57;77.16;96708.63;29395;213;63005;-55
2023/07/27 01:32:19;;;;;;;0.50;0.50;;;;;;;12.55;77.62;96711.66;29395;205;63009;-55
2023/07/27 01:33:05;;;;;;;0.50;0.50;;;;;;;12.52;77.72;96712.28;29395;216;63005;-64
2023/07/27 01:33:45;;;;;;;0.50;0.50;;;;;;;12.49;78.01;96710.16;29395;248;63009;-56
2023/07/27 01:34:31;;;;;;;0.50;0.50;;;;;;;12.49;78.14;96706.66;29395;214;63004;-55
2023/07/27 01:35:08;;;;;;;0.50;0.50;;;;;;;12.49;77.89;96703.94;29394;244;64013;-56
2023/07/27 01:36:13;;;;;;;0.50;0.50;;;;;;;12.46;78.10;96708.09;29394;239;64009;-56
2023/07/27 01:36:49;;;;;;;0.50;0.50;;;;;;;12.47;77.95;96712.44;29395;246;63018;-56
2023/07/27 01:37:22;;;;;;;0.50;0.50;;;;;;;12.45;77.81;96709.22;29395;202;63005;-55
2023/07/27 01:37:56;;;;;;;0.50;0.50;;;;;;;12.46;78.22;96702.66;29394;211;64014;-55
2023/07/27 01:38:29;;;;;;;0.50;0.50;;;;;;;12.44;78.43;96704.88;29395;246;63005;-56
2023/07/27 01:39:06;;;;;;;0.50;0.50;;;;;;;12.44;78.51;96709.50;29395;285;63019;-55
2023/07/27 01:39:41;;;;;;;0.50;0.50;;;;;;;12.41;78.64;96709.03;29395;205;63005;-56
2023/07/27 01:40:14;;;;;;;0.50;0.50;;;;;;;12.41;78.36;96705.50;29395;251;63009;-55
2023/07/27 01:40:51;;;;;;;0.50;0.50;;;;;;;12.39;78.62;96702.28;29394;261;64009;-54
2023/07/27 01:41:26;;;;;;;0.50;0.50;;;;;;;12.39;78.74;96702.28;29395;217;63009;-57
2023/07/27 01:41:59;;;;;;;0.50;0.50;;;;;;;12.40;78.49;96693.81;29395;242;63016;-56
2023/07/27 01:42:31;;;;;;;0.50;0.50;;;;;;;12.43;78.62;96697.03;29395;230;63009;-54
2023/07/27 01:43:04;;;;;;;0.50;0.50;;;;;;;12.44;78.22;96698.63;29395;221;63004;-62
2023/07/27 01:43:36;;;;;;;0.50;0.50;;;;;;;12.46;78.38;96694.50;29395;218;63009;-55
2023/07/27 01:44:09;;;;;;;0.50;0.50;;;;;;;12.51;78.14;96688.09;29395;213;63004;-55
2023/07/27 01:44:41;;;;;;;0.47;0.47;;;;;;;12.51;78.21;96697.06;29395;197;63009;-56
2023/07/27 01:45:14;;;;;;;0.50;0.50;;;;;;;12.50;78.19;96692.72;29395;222;63005;-55
2023/07/27 01:45:47;;;;;;;0.50;0.50;;;;;;;12.48;77.91;96696.88;29394;197;64014;-55
2023/07/27 01:46:20;;;;;;;0.45;0.45;;;;;;;12.45;78.34;96689.34;29395;197;63005;-55
2023/07/27 01:46:54;;;;;;;0.50;0.50;;;;;;;12.44;78.50;96694.00;29395;225;63009;-55
2023/07/27 01:47:26;;;;;;;0.50;0.50;;;;;;;12.43;78.54;96688.84;29395;218;63008;-54
2023/07/27 01:47:59;;;;;;;0.50;0.50;;;;;;;12.43;78.73;96697.03;29394;242;64013;-54
2023/07/27 01:48:32;;;;;;;0.50;0.50;;;;;;;12.43;78.43;96692.37;29395;208;63014;-55
2023/07/27 01:49:04;;;;;;;0.50;0.50;;;;;;;12.44;78.64;96694.00;29395;210;63009;-54
2023/07/27 01:49:39;;;;;;;0.50;0.50;;;;;;;12.46;78.73;96686.31;29395;203;63004;-54
2023/07/27 01:50:13;;;;;;;0.50;0.50;;;;;;;12.48;78.67;96697.69;29395;207;63009;-54
2023/07/27 01:50:46;;;;;;;0.50;0.50;;;;;;;12.52;78.01;96690.50;29394;236;64008;-54
2023/07/27 01:51:19;;;;;;;0.50;0.50;;;;;;;12.54;78.03;96693.72;29394;218;64013;-54
2023/07/27 01:51:51;;;;;;;0.50;0.50;;;;;;;12.54;78.13;96695.63;29395;252;63005;-54
2023/07/27 01:52:26;;;;;;;0.40;0.40;;;;;;;12.55;77.79;96695.34;29394;208;64014;-54
2023/07/27 01:53:00;;;;;;;0.47;0.47;;;;;;;12.55;78.03;96697.25;29395;205;63018;-54
2023/07/27 01:53:33;;;;;;;0.50;0.50;;;;;;;12.55;77.77;96692.59;29395;234;63009;-53
2023/07/27 01:54:06;;;;;;;0.50;0.50;;;;;;;12.54;77.98;96682.84;29395;235;63005;-62
2023/07/27 01:54:39;;;;;;;0.50;0.50;;;;;;;12.51;77.78;96683.47;29394;218;64013;-54
2023/07/27 01:55:15;;;;;;;0.50;0.50;;;;;;;12.52;77.92;96689.69;29395;236;63005;-55
2023/07/27 01:55:48;;;;;;;0.50;0.50;;;;;;;12.51;78.04;96688.09;29394;200;64013;-54
2023/07/27 01:56:21;;;;;;;0.50;0.50;;;;;;;12.50;77.93;96686.47;29395;254;63015;-55
2023/07/27 01:56:55;;;;;;;0.50;0.50;;;;;;;12.48;78.25;96680.53;29395;266;63009;-55
2023/07/27 01:57:26;;;;;;;0.50;0.50;;;;;;;12.47;78.25;96689.84;29395;196;63016;-55
2023/07/27 01:58:01;;;;;;;0.50;0.50;;;;;;;12.46;78.57;96688.25;29394;203;64013;-56
2023/07/27 01:58:36;;;;;;;0.50;0.50;;;;;;;12.45;78.76;96684.72;29395;209;63004;-56
2023/07/27 01:59:12;;;;;;;0.50;0.50;;;;;;;12.45;78.61;96683.91;29395;208;63019;-53
2023/07/27 01:59:45;;;;;;;0.50;0.50;;;;;;;12.44;78.44;96683.09;29395;199;63011;-55
2023/07/27 02:00:19;;;;;;;0.50;0.50;;;;;;;12.47;78.32;96676.25;29395;194;63009;-63
2023/07/27 02:00:51;;;;;;;0.45;0.45;;;;;;;12.47;78.15;96682.50;29395;209;63005;-60
2023/07/27 02:01:23;;;;;;;0.50;0.50;;;;;;;12.48;78.11;96686.78;29395;232;63009;-54
2023/07/27 02:01:54;;;;;;;0.50;0.50;;;;;;;12.50;78.27;96684.56;29395;219;63005;-55
2023/07/27 02:02:27;;;;;;;0.50;0.50;;;;;;;12.53;78.01;96686.66;29395;196;63022;-54
2023/07/27 02:02:59;;;;;;;0.40;0.40;;;;;;;12.55;77.82;96680.91;29394;270;64009;-54
2023/07/27 02:03:31;;;;;;;0.50;0.50;;;;;;;12.55;77.64;96679.00;29395;291;63011;-54
2023/07/27 02:04:06;;;;;;;0.50;0.50;;;;;;;12.54;77.77;96673.88;29395;204;63014;-54
2023/07/27 02:04:37;;;;;;;0.50;0.50;;;;;;;12.55;77.85;96683.63;29394;214;64013;-54
2023/07/27 02:05:10;;;;;;;0.50;0.50;;;;;;;12.55;77.99;96675.47;29394;206;64009;-54
2023/07/27 02:05:44;;;;;;;0.50;0.50;;;;;;;12.54;77.95;96671.94;29395;244;63019;-53
2023/07/27 02:06:15;;;;;;;0.50;0.50;;;;;;;12.56;78.02;96674.38;29395;208;63004;-54
2023/07/27 02:06:52;;;;;;;0.50;0.50;;;;;;;12.56;78.21;96675.16;29395;214;63009;-55
2023/07/27 02:07:23;;;;;;;0.50;0.50;;;;;;;12.58;77.88;96678.37;29395;211;63005;-53
2023/07/27 02:07:54;;;;;;;0.40;0.40;;;;;;;12.59;77.79;96680.00;29395;219;63009;-54
2023/07/27 02:08:25;;;;;;;0.50;0.50;;;;;;;12.58;77.55;96672.94;29395;256;63005;-53
2023/07/27 02:08:56;;;;;;;0.50;0.50;;;;;;;12.59;77.74;96668.31;29395;234;63024;-54
2023/07/27 02:09:27;;;;;;;0.50;0.50;;;;;;;12.58;77.47;96670.22;29394;214;64009;-54
2023/07/27 02:09:59;;;;;;;0.50;0.50;;;;;;;12.59;77.81;96673.75;29394;226;64013;-55
2023/07/27 02:10:32;;;;;;;0.50;0.50;;;;;;;12.60;77.50;96676.16;29395;244;63011;-55
2023/07/27 02:11:05;;;;;;;0.50;0.50;;;;;;;12.67;76.78;96667.56;29395;233;63009;-55
2023/07/27 02:11:42;;;;;;;0.50;0.50;;;;;;;12.69;76.72;96671.56;29395;224;63004;-56
2023/07/27 02:12:32;;;;;;;0.40;0.40;;;;;;;12.71;76.85;96668.53;29395;240;63009;-55
2023/07/27 02:13:18;;;;;;;0.47;0.47;;;;;;;12.69;76.63;96663.41;29395;340;63004;-55
2023/07/27 02:14:37;;;;;;;0.50;0.50;;;;;;;12.68;76.67;96664.53;29395;206;63027;-55
2023/07/27 02:15:17;;;;;;;0.50;0.50;;;;;;;12.70;76.86;96666.94;29395;197;63009;-55
2023/07/27 02:15:56;;;;;;;0.50;0.50;;;;;;;12.65;77.00;96662.41;29395;213;63009;-55
2023/07/27 02:16:54;;;;;;;0.50;0.50;;;;;;;12.61;77.08;96666.88;29395;248;63005;-55
2023/07/27 02:17:35;;;;;;;0.50;0.50;;;;;;;12.62;77.30;96659.50;29395;207;63027;-55
2023/07/27 02:18:14;;;;;;;0.50;0.50;;;;;;;12.63;77.11;96670.09;29417;253;63005;-56
2023/07/27 02:18:49;;;;;;;0.50;0.50;;;;;;;12.61;77.40;96661.44;29395;226;63009;-55
2023/07/27 02:19:26;;;;;;;0.50;0.50;;;;;;;12.58;77.18;96664.78;29395;206;63004;-54
2023/07/27 02:20:00;;;;;;;0.50;0.50;;;;;;;12.55;77.43;96661.88;29394;252;64013;-55
2023/07/27 02:20:40;;;;;;;0.50;0.50;;;;;;;12.51;77.63;96666.31;29395;205;63004;-56
2023/07/27 02:21:13;;;;;;;0.40;0.40;;;;;;;12.53;77.82;96667.63;29395;210;63008;-55
2023/07/27 02:21:46;;;;;;;0.50;0.50;;;;;;;12.56;77.76;96660.75;29395;217;63005;-56
2023/07/27 02:22:18;;;;;;;0.50;0.50;;;;;;;12.55;77.56;96667.31;29395;247;63009;-56
2023/07/27 02:22:51;;;;;;;0.50;0.50;;;;;;;12.58;77.14;96662.06;29395;215;63005;-55
2023/07/27 02:23:23;;;;;;;0.50;0.50;;;;;;;12.57;77.06;96665.88;29395;254;63009;-66
2023/07/27 02:23:55;;;;;;;0.45;0.45;;;;;;;12.54;77.56;96666.50;29395;213;63005;-55
2023/07/27 02:24:28;;;;;;;0.50;0.50;;;;;;;12.52;77.77;96662.50;29395;225;63009;-55
2023/07/27 02:25:00;;;;;;;0.50;0.50;;;;;;;12.47;78.16;96660.72;29394;233;64009;-55
2023/07/27 02:25:31;;;;;;;0.50;0.50;;;;;;;12.44;78.27;96661.34;29395;233;63024;-56
2023/07/27 02:26:03;;;;;;;0.50;0.50;;;;;;;12.41;78.45;96661.97;29394;202;64009;-55
2023/07/27 02:26:35;;;;;;;0.50;0.50;;;;;;;12.42;78.44;96660.84;29395;276;63018;-55
2023/07/27 02:27:07;;;;;;;0.50;0.50;;;;;;;12.41;78.15;96657.31;29395;204;63004;-55
2023/07/27 02:27:38;;;;;;;0.50;0.50;;;;;;;12.42;78.31;96660.84;29395;221;63009;-56
2023/07/27 02:28:13;;;;;;;0.50;0.50;;;;;;;12.43;78.20;96657.00;29395;219;63004;-55
2023/07/27 02:28:44;;;;;;;0.40;0.40;;;;;;;12.44;78.42;96665.97;29395;219;63008;-55
2023/07/27 02:29:16;;;;;;;0.50;0.50;;;;;;;12.43;78.07;96658.94;29395;199;63005;-56
2023/07/27 02:29:48;;;;;;;0.50;0.50;;;;;;;12.41;78.36;96662.75;29395;240;63021;-55
2023/07/27 02:30:19;;;;;;;0.40;0.40;;;;;;;12.41;78.51;96661.97;29395;218;63017;-55
2023/07/27 02:30:50;;;;;;;0.50;0.50;;;;;;;12.40;78.44;96660.34;29395;202;63009;-55
2023/07/27 02:31:23;;;;;;;0.50;0.50;;;;;;;12.40;78.41;96660.34;29394;228;64009;-55
2023/07/27 02:31:55;;;;;;;0.50;0.50;;;;;;;12.42;78.57;96660.84;29395;209;63009;-54
2023/07/27 02:32:27;;;;;;;0.45;0.45;;;;;;;12.44;78.19;96661.34;29395;283;63018;-55
2023/07/27 02:32:59;;;;;;;0.50;0.50;;;;;;;12.44;78.41;96658.62;29395;209;63009;-55
2023/07/27 02:33:30;;;;;;;0.50;0.50;;;;;;;12.45;78.29;96657.50;29395;231;63004;-55
2023/07/27 02:34:01;;;;;;;0.50;0.50;;;;;;;12.45;78.36;96657.50;29395;215;63009;-60
2023/07/27 02:34:33;;;;;;;0.50;0.50;;;;;;;12.46;78.41;96655.59;29395;209;63004;-62
2023/07/27 02:35:05;;;;;;;0.50;0.50;;;;;;;12.44;78.62;96655.91;29395;246;63009;-55
2023/07/27 02:35:36;;;;;;;0.50;0.50;;;;;;;12.45;78.23;96646.63;29395;234;63007;-55
2023/07/27 02:36:08;;;;;;;0.50;0.50;;;;;;;12.45;78.54;96652.06;29395;215;63027;-55
2023/07/27 02:48:14;;;;;;;0.50;0.50;;;;;;;12.62;78.62;96641.28;88121;204;64005;-54
2023/07/27 02:48:45;;;;;;;0.50;0.50;;;;;;;12.61;79.02;96638.84;29394;221;64026;-54
2023/07/27 02:49:16;;;;;;;0.50;0.50;;;;;;;12.64;77.94;96644.47;29395;238;63004;-53
2023/07/27 02:49:47;;;;;;;0.50;0.50;;;;;;;12.62;78.14;96635.81;29395;209;63009;-55
2023/07/27 02:50:19;;;;;;;0.50;0.50;;;;;;;12.59;78.31;96636.44;29395;232;63005;-54
2023/07/27 02:50:51;;;;;;;0.50;0.50;;;;;;;12.57;78.35;96637.88;29395;200;63009;-54
2023/07/27 02:51:25;;;;;;;0.50;0.50;;;;;;;12.56;78.46;96638.97;29395;274;63015;-54
2023/07/27 02:53:14;;;;;;;0.55;0.55;;;;;;;12.61;78.48;96638.84;87934;202;155000;-54
2023/07/27 02:53:45;;;;;;;0.50;0.50;;;;;;;12.58;78.62;96642.19;29394;353;64009;-54
2023/07/27 02:54:16;;;;;;;0.50;0.50;;;;;;;12.58;78.19;96637.56;29395;240;63004;-54
2023/07/27 02:54:47;;;;;;;0.50;0.50;;;;;;;12.56;78.80;96638.97;29394;240;64013;-61
2023/07/27 02:55:19;;;;;;;0.50;0.50;;;;;;;12.53;79.28;96636.88;29395;203;63005;-54
2023/07/27 02:56:01;;;;;;;1.33;1.33;;;;;;;12.60;78.54;96632.59;29395;211;63009;-54
2023/07/27 02:56:32;;;;;;;0.50;0.50;;;;;;;12.62;78.46;96633.09;29395;234;63005;-53
2023/07/27 02:57:04;;;;;;;0.50;0.50;;;;;;;12.62;78.30;96635.81;29395;236;63009;-54
2023/07/27 02:57:36;;;;;;;0.50;0.50;;;;;;;12.64;78.40;96632.78;29395;279;63005;-53
2023/07/27 02:58:10;;;;;;;0.50;0.50;;;;;;;12.65;78.66;96635.19;29395;259;63009;-55
2023/07/27 02:58:41;;;;;;;0.50;0.50;;;;;;;12.64;78.39;96633.59;29395;250;63004;-61
2023/07/27 02:59:13;;;;;;;0.40;0.40;;;;;;;12.62;78.73;96635.81;29394;212;64013;-54
2023/07/27 02:59:44;;;;;;;0.50;0.50;;;;;;;12.64;78.54;96633.59;29395;218;63004;-55